Warwick, Canada
Current Conditions -  °F | °C
As of 6:00 PM on Monday 22 Dec 2014 (Local Time) from CYSC Reporting Station
Overcast Overcast  
Wind Chill: 20°   Ceiling: 3600
Heat Index: 27°   Visibility: 9mi
Dew Point: 27°   Wind: 6mph
Humidity: 100%   Direction: 70°ENE
Pressure: 30.3"   Gusts: NA
Location:  45.95°N, 71.98°W
Report Text: CYSC 222300Z AUTO 07005KT 9SM OVC036 M03/M03 A3030 RMK SLP276
Loading
Personal Weather Stations






























Interactive Weather Map New forecast layout! Learn more

10-Day Weather Forecast

Advertisements
Track Severe Weather on mobile